Sid Moller — WDF9421 — position and weather

sailwx.info

Track history (hours):
 
Tides and Currents Weather Stations Pressure Air Temp Water Temp Dewpoint Dewpoint Depression Visibility Wind Speed Wind Dir Waves Ship Positions

Sid Moller

Owner: Genesis Marine, LLC, Houston, TX. More information available from US FCC via Universal Licensing System and Coast Guard Vessel Documentation Center.

Last reported at 2017-Apr-23 14:38 UTC. Time now 2017-Apr-27 16:57 UTC.
Position N 29°36' W 090°58'.

Length 26 m; draft 3 m.

Type: Ship (hazmat cat A). MMSI: 367504980.

Date/timePositionNaut miles runAvg speedWind from/ knotsBaromVisibWave heightAir tempDewpointWater temp
2017-Apr-23 14:38N 29°36' W 090°58'4 5.8
2017-Apr-23 14:00N 29°33' W 090°55'3 5.6
2017-Apr-23 13:25N 29°32' W 090°51'2 5.8
2017-Apr-23 13:00N 29°32' W 090°49'3 5.3
2017-Apr-23 12:30N 29°33' W 090°46'2 4.7
2017-Apr-23 12:00N 29°34' W 090°43'2 4.4
2017-Apr-23 11:30N 29°36' W 090°43'2 3.4
2017-Apr-23 11:00N 29°36' W 090°41'1 1.1
2017-Apr-23 10:30N 29°36' W 090°40'0 0.0
2017-Apr-23 10:00N 29°36' W 090°40'0 0.0
2017-Apr-23 09:30N 29°36' W 090°40'0 0.0
2017-Apr-23 09:00N 29°36' W 090°40'0 0.0
2017-Apr-23 08:30N 29°36' W 090°40'0 0.0
2017-Apr-23 08:00N 29°36' W 090°40'0 0.0
2017-Apr-23 07:30N 29°36' W 090°40'0 0.0
2017-Apr-23 07:00N 29°36' W 090°40'0 0.0
2017-Apr-23 06:30N 29°36' W 090°40'0 0.0
2017-Apr-23 06:00N 29°36' W 090°40'0 0.0
2017-Apr-23 05:30N 29°36' W 090°40'0 0.0
2017-Apr-23 05:00N 29°36' W 090°40'0 0.0
2017-Apr-23 04:30N 29°36' W 090°40'0 0.0
2017-Apr-23 04:00N 29°36' W 090°40'0 0.0
2017-Apr-23 03:30N 29°36' W 090°40'0 0.0
2017-Apr-23 03:00N 29°36' W 090°40'0 0.0
2017-Apr-23 02:30N 29°36' W 090°40'0 0.0
2017-Apr-23 02:00N 29°36' W 090°40'0 0.0
2017-Apr-23 01:30N 29°36' W 090°40'0 0.0
2017-Apr-23 01:00N 29°36' W 090°40'0 0.0
2017-Apr-23 00:30N 29°36' W 090°40'0 0.0
2017-Apr-23 00:00N 29°36' W 090°40'0 0.0
2017-Apr-22 23:30N 29°36' W 090°40'0 0.0
2017-Apr-22 23:00N 29°36' W 090°40'0 0.5
2017-Apr-22 22:30N 29°36' W 090°40'0 0.5
2017-Apr-22 22:00N 29°36' W 090°40'1 2.5
2017-Apr-22 21:30N 29°35' W 090°39'2 4.7
2017-Apr-22 20:59N 29°35' W 090°36'3 5.6
2017-Apr-22 20:30N 29°34' W 090°33'  
2017-Apr-20 04:50N 29°34' W 090°30'2 4.7
2017-Apr-20 04:30N 29°34' W 090°31'2 4.4
2017-Apr-20 04:00N 29°34' W 090°34'1 1.3
2017-Apr-20 03:28N 29°34' W 090°35'1 3.2
2017-Apr-20 03:00N 29°35' W 090°36'2 4.6
2017-Apr-20 02:30N 29°35' W 090°39'1 2.8
2017-Apr-20 02:00N 29°36' W 090°40'0 0.0
2017-Apr-20 01:30N 29°36' W 090°40'0 0.0
2017-Apr-20 01:00N 29°36' W 090°40'0 0.0
2017-Apr-20 00:30N 29°36' W 090°40'0 0.0
2017-Apr-20 00:00N 29°36' W 090°40'0 0.0
2017-Apr-19 23:30N 29°36' W 090°40'0 0.0
2017-Apr-19 23:00N 29°36' W 090°40'0 0.1
2017-Apr-19 22:30N 29°36' W 090°40'0 0.1
2017-Apr-19 22:00N 29°36' W 090°40'0 0.0
2017-Apr-19 21:30N 29°36' W 090°40'0 0.0
2017-Apr-19 21:00N 29°36' W 090°40'0 0.0
2017-Apr-19 20:30N 29°36' W 090°40'0 0.0
2017-Apr-19 20:00N 29°36' W 090°40'0 0.0
2017-Apr-19 19:30N 29°36' W 090°40'0 0.0
2017-Apr-19 19:00N 29°36' W 090°40'1 2.6
2017-Apr-19 18:30N 29°37' W 090°42'1 1.9
2017-Apr-19 18:00N 29°36' W 090°43'2 3.8
2017-Apr-19 17:30N 29°35' W 090°43'1 2.2
2017-Apr-19 17:00N 29°34' W 090°44'1 2.7
2017-Apr-19 16:30N 29°33' W 090°45'0 0.4
2017-Apr-19 16:00N 29°33' W 090°45'1 3.0
2017-Apr-19 15:30N 29°32' W 090°47'3 5.8
2017-Apr-19 15:00N 29°32' W 090°50'3 5.0
2017-Apr-19 14:28N 29°33' W 090°53'56 3.1
2017-Apr-18 20:32N 29°51' W 091°54'1 5.1
2017-Apr-18 20:17N 29°51' W 091°56'1 5.3
2017-Apr-18 20:00N 29°50' W 091°57'3 5.3
2017-Apr-18 19:30N 29°50' W 092°00'3 5.4
2017-Apr-18 19:00N 29°49' W 092°03'3 5.7
2017-Apr-18 18:30N 29°48' W 092°06'3 5.4
2017-Apr-18 18:00N 29°47' W 092°09'2 4.7
2017-Apr-18 17:30N 29°47' W 092°12'0 0.7
2017-Apr-18 17:00N 29°47' W 092°13'1 2.0
2017-Apr-18 16:30N 29°48' W 092°14'2 3.4
2017-Apr-18 16:00N 29°48' W 092°15'2 4.4
2017-Apr-18 15:30N 29°49' W 092°18'2 3.8
2017-Apr-18 15:00N 29°50' W 092°19'2 4.5
2017-Apr-18 14:30N 29°51' W 092°22'5 4.7
2017-Apr-18 13:30N 29°53' W 092°27'32 4.6
2017-Apr-18 06:27N 29°56' W 093°04'8 4.2
2017-Apr-18 04:29N 29°59' W 093°13'2 4.3
2017-Apr-18 04:00N 30°01' W 093°14'1 2.0
2017-Apr-18 03:30N 30°02' W 093°15'1 1.9
2017-Apr-18 03:00N 30°02' W 093°16'2 4.4
2017-Apr-18 02:30N 30°04' W 093°16'1 2.9
2017-Apr-18 02:00N 30°05' W 093°18'1 2.2
2017-Apr-18 01:30N 30°06' W 093°18'0 0.3
2017-Apr-18 01:00N 30°06' W 093°19'0 0.5
2017-Apr-18 00:30N 30°06' W 093°19'0 0.4
2017-Apr-18 00:00N 30°06' W 093°19'0 1.0
2017-Apr-17 23:30N 30°06' W 093°19'1 2.5
2017-Apr-17 23:01N 30°05' W 093°20'0 0.2
2017-Apr-17 22:30N 30°05' W 093°20'0 0.0
2017-Apr-17 22:00N 30°05' W 093°20'0 0.0
2017-Apr-17 21:30N 30°05' W 093°20'0 0.0
2017-Apr-17 21:00N 30°05' W 093°20'0 0.0
2017-Apr-17 20:30N 30°05' W 093°20'0 0.0
2017-Apr-17 20:00N 30°05' W 093°20'0 0.0
2017-Apr-17 19:30N 30°05' W 093°20'0 0.0
2017-Apr-17 19:00N 30°05' W 093°20'0 0.5
2017-Apr-17 18:30N 30°05' W 093°20'0 0.5
2017-Apr-17 18:00N 30°05' W 093°20'0 0.0
2017-Apr-17 17:30N 30°05' W 093°20'0 0.0
2017-Apr-17 17:01N 30°05' W 093°20'0 0.0
2017-Apr-17 16:31N 30°05' W 093°20'0 0.0
2017-Apr-17 16:00N 30°05' W 093°20'0 0.0
2017-Apr-17 15:31N 30°05' W 093°20'0 0.0
2017-Apr-17 15:01N 30°05' W 093°20'0 0.0
2017-Apr-17 14:31N 30°05' W 093°20'0 0.0
2017-Apr-17 13:31N 30°05' W 093°20'0 0.0
2017-Apr-17 13:01N 30°05' W 093°20'0 0.0
2017-Apr-17 12:30N 30°05' W 093°20'0 0.0
2017-Apr-17 12:01N 30°05' W 093°20'0 0.0
2017-Apr-17 11:31N 30°05' W 093°20'0 0.0
2017-Apr-17 11:01N 30°05' W 093°20'0 0.0
2017-Apr-17 10:30N 30°05' W 093°20'0 0.0
2017-Apr-17 10:00N 30°05' W 093°20'0 0.0
2017-Apr-17 09:30N 30°05' W 093°20'0 0.0
2017-Apr-17 09:00N 30°05' W 093°20'0 0.0
2017-Apr-17 08:31N 30°05' W 093°20'0 0.0
2017-Apr-17 08:01N 30°05' W 093°20'0 0.0
2017-Apr-17 07:31N 30°05' W 093°20'0 0.0
2017-Apr-17 07:00N 30°05' W 093°20'0 0.0
2017-Apr-17 06:31N 30°05' W 093°20'0 0.0
2017-Apr-17 06:01N 30°05' W 093°20'0 0.0
2017-Apr-17 05:31N 30°05' W 093°20'0 0.0
2017-Apr-17 05:00N 30°05' W 093°20'0 0.0
2017-Apr-17 04:31N 30°05' W 093°20'0 0.0
2017-Apr-17 04:01N 30°05' W 093°20'0 0.0
2017-Apr-17 03:30N 30°05' W 093°20'0 0.0
2017-Apr-17 03:01N 30°05' W 093°20'0 0.0
2017-Apr-17 02:31N 30°05' W 093°20'0 0.0
2017-Apr-17 02:01N 30°05' W 093°20'0 0.0
2017-Apr-17 01:31N 30°05' W 093°20'0 0.0
2017-Apr-17 01:00N 30°05' W 093°20'0 0.0
2017-Apr-17 00:30N 30°05' W 093°20'0 0.0
2017-Apr-17 00:01N 30°05' W 093°20'0 0.0
2017-Apr-16 23:30N 30°05' W 093°20'0 0.0
2017-Apr-16 23:01N 30°05' W 093°20'0 0.0
2017-Apr-16 22:30N 30°05' W 093°20'0 0.0
2017-Apr-16 22:01N 30°05' W 093°20'0 0.0
2017-Apr-16 21:30N 30°05' W 093°20'0 0.0
2017-Apr-16 21:00N 30°05' W 093°20'0 0.0
2017-Apr-16 20:31N 30°05' W 093°20'0 0.0
2017-Apr-16 20:01N 30°05' W 093°20'0 0.0
2017-Apr-16 19:30N 30°05' W 093°20'0 0.0
2017-Apr-16 19:01N 30°05' W 093°20'0 0.0
2017-Apr-16 18:30N 30°05' W 093°20'0 0.0
2017-Apr-16 18:01N 30°05' W 093°20'0 0.0
2017-Apr-16 17:31N 30°05' W 093°20'0 0.0
2017-Apr-16 17:01N 30°05' W 093°20'0 0.0
2017-Apr-16 16:31N 30°05' W 093°20'0 0.0
2017-Apr-16 16:01N 30°05' W 093°20'0 0.0
2017-Apr-16 15:30N 30°05' W 093°20'0 0.0
2017-Apr-16 15:00N 30°05' W 093°20'0 0.0
2017-Apr-16 14:30N 30°05' W 093°20'0 0.0
2017-Apr-16 13:30N 30°05' W 093°20'0 0.0
2017-Apr-16 13:00N 30°05' W 093°20'0 0.0
2017-Apr-16 12:31N 30°05' W 093°20'0 0.0
2017-Apr-16 12:00N 30°05' W 093°20'0 0.0
2017-Apr-16 11:30N 30°05' W 093°20'0 0.0
2017-Apr-16 11:01N 30°05' W 093°20'0 0.0
2017-Apr-16 10:30N 30°05' W 093°20'0 0.0
2017-Apr-16 10:00N 30°05' W 093°20'0 0.0
2017-Apr-16 09:31N 30°05' W 093°20'0 0.0
2017-Apr-16 09:00N 30°05' W 093°20'0 0.0
2017-Apr-16 08:30N 30°05' W 093°20'0 0.0
2017-Apr-16 08:00N 30°05' W 093°20'0 0.0
2017-Apr-16 07:31N 30°05' W 093°20'0 0.0
2017-Apr-16 07:01N 30°05' W 093°20'0 0.0
2017-Apr-16 06:31N 30°05' W 093°20'0 0.0
2017-Apr-16 06:00N 30°05' W 093°20'0 0.0
2017-Apr-16 05:31N 30°05' W 093°20'0 0.0
2017-Apr-16 05:01N 30°05' W 093°20'0 0.0
2017-Apr-16 04:30N 30°05' W 093°20'0 0.0
2017-Apr-16 04:00N 30°05' W 093°20'0 0.0
2017-Apr-16 03:30N 30°05' W 093°20'0 0.0
2017-Apr-16 03:01N 30°05' W 093°20'0 0.0
2017-Apr-16 02:30N 30°05' W 093°20'0 0.0
2017-Apr-16 02:01N 30°05' W 093°20'0 0.0
2017-Apr-16 01:31N 30°05' W 093°20'0 0.0
2017-Apr-16 01:00N 30°05' W 093°20'0 0.0
2017-Apr-16 00:30N 30°05' W 093°20'0 0.0
2017-Apr-16 00:01N 30°05' W 093°20'0 0.0
2017-Apr-15 23:31N 30°05' W 093°20'0 0.0
2017-Apr-15 23:01N 30°05' W 093°20'0 0.0
2017-Apr-15 22:30N 30°05' W 093°20'2 4.6
2017-Apr-15 22:00N 30°06' W 093°18'0 0.0
2017-Apr-15 21:30N 30°06' W 093°18'0 0.0
2017-Apr-15 21:01N 30°06' W 093°18'0 0.0
2017-Apr-15 20:31N 30°06' W 093°18'0 0.0
2017-Apr-15 20:01N 30°06' W 093°18'0 0.0
2017-Apr-15 19:31N 30°06' W 093°18'0 0.0
2017-Apr-15 19:00N 30°06' W 093°18'0 0.0
2017-Apr-15 18:31N 30°06' W 093°18'2 4.5
2017-Apr-15 18:00N 30°05' W 093°20'0 0.0
2017-Apr-15 17:31N 30°05' W 093°20'0 0.7
2017-Apr-15 17:00N 30°05' W 093°20'2 3.9
2017-Apr-15 16:30N 30°07' W 093°20'2 4.9
2017-Apr-15 16:00N 30°09' W 093°20'1 2.1
2017-Apr-15 15:30N 30°10' W 093°19'0 0.0
2017-Apr-15 15:00N 30°10' W 093°19'0 0.1
2017-Apr-15 14:31N 30°10' W 093°19'0 0.0
2017-Apr-15 13:30N 30°10' W 093°19'0 0.0
2017-Apr-15 13:01N 30°10' W 093°19'0 0.0
2017-Apr-15 12:31N 30°10' W 093°19'0 0.0
2017-Apr-15 12:01N 30°10' W 093°19'0 0.0
2017-Apr-15 11:31N 30°10' W 093°19'0 0.0
2017-Apr-15 11:00N 30°10' W 093°19'0 0.0
2017-Apr-15 10:31N 30°10' W 093°19'0 0.0
2017-Apr-15 10:00N 30°10' W 093°19'0 0.0
2017-Apr-15 09:31N 30°10' W 093°19'0 0.0
2017-Apr-15 09:00N 30°10' W 093°19'0 0.0
2017-Apr-15 08:30N 30°10' W 093°19'0 0.0
2017-Apr-15 08:01N 30°10' W 093°19'0 0.0
2017-Apr-15 07:31N 30°10' W 093°19'0 0.0
2017-Apr-15 07:00N 30°10' W 093°19'0 0.0
2017-Apr-15 06:31N 30°10' W 093°19'0 0.0
2017-Apr-15 06:00N 30°10' W 093°19'0 0.0
2017-Apr-15 05:30N 30°10' W 093°19'0 0.0
2017-Apr-15 05:01N 30°10' W 093°19'0 0.0
2017-Apr-15 04:30N 30°10' W 093°19'0 0.0
2017-Apr-15 03:51N 30°10' W 093°19'0 0.0
2017-Apr-15 03:30N 30°10' W 093°19'0 0.0
2017-Apr-15 03:00N 30°10' W 093°19'0 0.0
2017-Apr-15 02:30N 30°10' W 093°19'0 0.0
2017-Apr-15 02:00N 30°10' W 093°19'0 0.0
2017-Apr-15 01:30N 30°10' W 093°19'0 0.0
2017-Apr-15 01:00N 30°10' W 093°19'0 0.0
2017-Apr-15 00:30N 30°10' W 093°19'0 0.0
2017-Apr-15 00:00N 30°10' W 093°19'0 0.0
2017-Apr-14 23:30N 30°10' W 093°19'0 0.0
2017-Apr-14 23:00N 30°10' W 093°19'0 0.0
2017-Apr-14 22:30N 30°10' W 093°19'0 0.0
2017-Apr-14 22:00N 30°10' W 093°19'0 0.0
2017-Apr-14 21:30N 30°10' W 093°19'0 0.0
2017-Apr-14 21:00N 30°10' W 093°19'0 0.0
2017-Apr-14 20:30N 30°10' W 093°19'0 0.0
2017-Apr-14 20:00N 30°10' W 093°19'0 0.0
2017-Apr-14 19:30N 30°10' W 093°19'2 3.6
2017-Apr-14 19:00N 30°09' W 093°20'2 4.2
2017-Apr-14 18:30N 30°07' W 093°20'2 4.2
2017-Apr-14 18:00N 30°04' W 093°20'0 0.1
2017-Apr-14 17:30N 30°04' W 093°20'0 0.0
2017-Apr-14 17:00N 30°04' W 093°20'0 0.0
2017-Apr-14 16:30N 30°04' W 093°20'0 0.0
2017-Apr-14 16:00N 30°04' W 093°20'0 0.0
2017-Apr-14 15:30N 30°04' W 093°20'0 0.0
2017-Apr-14 15:00N 30°04' W 093°20'0 0.0
2017-Apr-14 14:30N 30°04' W 093°20'0 0.0
2017-Apr-14 13:30N 30°04' W 093°20'0 0.0
2017-Apr-14 13:00N 30°04' W 093°20'0 0.0
2017-Apr-14 12:30N 30°04' W 093°20'0 0.0
2017-Apr-14 12:00N 30°04' W 093°20'0 0.0
2017-Apr-14 11:30N 30°04' W 093°20'0 0.0
2017-Apr-14 11:00N 30°04' W 093°20'0 0.0
2017-Apr-14 10:30N 30°04' W 093°20'0 0.4
2017-Apr-14 10:00N 30°05' W 093°20'0 0.0
2017-Apr-14 09:30N 30°05' W 093°20'0 0.0
2017-Apr-14 09:00N 30°05' W 093°20'0 0.0
2017-Apr-14 08:30N 30°05' W 093°20'0 0.0
2017-Apr-14 08:00N 30°05' W 093°20'0 0.0
2017-Apr-14 07:30N 30°05' W 093°20'0 0.0
2017-Apr-14 07:00N 30°05' W 093°20'0 0.0
2017-Apr-14 06:30N 30°05' W 093°20'0 0.0
2017-Apr-14 06:00N 30°05' W 093°20'0 0.0
2017-Apr-14 05:30N 30°05' W 093°20'0 0.0
2017-Apr-14 05:00N 30°05' W 093°20'0 0.1
2017-Apr-14 04:30N 30°05' W 093°20'2 4.1
2017-Apr-14 04:00N 30°07' W 093°20'1 1.3
2017-Apr-14 03:30N 30°07' W 093°20'3 5.2
2017-Apr-14 03:00N 30°05' W 093°20'0 0.7
2017-Apr-14 02:30N 30°04' W 093°20'0 0.0
2017-Apr-14 02:00N 30°04' W 093°20'0 0.0
2017-Apr-14 01:30N 30°04' W 093°20'1 1.4
2017-Apr-14 01:00N 30°05' W 093°20'2 3.5
2017-Apr-14 00:30N 30°06' W 093°18'0 0.5
2017-Apr-14 00:00N 30°06' W 093°18'2 4.5
2017-Apr-13 23:30N 30°04' W 093°16'2 4.5
2017-Apr-13 23:00N 30°02' W 093°15'3 5.2
2017-Apr-13 22:30N 30°00' W 093°14'3 5.6
2017-Apr-13 22:00N 29°58' W 093°11'3 5.4
2017-Apr-13 21:30N 29°56' W 093°09'36 5.6
2017-Apr-13 15:01N 29°54' W 092°27'0 5.9
2017-Apr-13 14:59N 29°54' W 092°27'  
Track history (hours):
 
Tides and Currents Weather Stations Pressure Air Temp Water Temp Dewpoint Dewpoint Depression Visibility Wind Speed Wind Dir Waves Ship Positions

Sid Moller

Owner: Genesis Marine, LLC, Houston, TX. More information available from US FCC via Universal Licensing System and Coast Guard Vessel Documentation Center.

Last reported at 2017-Apr-23 14:38 UTC. Time now 2017-Apr-27 16:57 UTC.
Position N 29°36' W 090°58'.

Length 26 m; draft 3 m.

Type: Ship (hazmat cat A). MMSI: 367504980.

Date/timePositionNaut miles runAvg speedWind from/ knotsBaromVisibWave heightAir tempDewpointWater temp
2017-Apr-23 14:38N 29°36' W 090°58'4 5.8
2017-Apr-23 14:00N 29°33' W 090°55'3 5.6
2017-Apr-23 13:25N 29°32' W 090°51'2 5.8
2017-Apr-23 13:00N 29°32' W 090°49'3 5.3
2017-Apr-23 12:30N 29°33' W 090°46'2 4.7
2017-Apr-23 12:00N 29°34' W 090°43'2 4.4
2017-Apr-23 11:30N 29°36' W 090°43'2 3.4
2017-Apr-23 11:00N 29°36' W 090°41'1 1.1
2017-Apr-23 10:30N 29°36' W 090°40'0 0.0
2017-Apr-23 10:00N 29°36' W 090°40'0 0.0
2017-Apr-23 09:30N 29°36' W 090°40'0 0.0
2017-Apr-23 09:00N 29°36' W 090°40'0 0.0
2017-Apr-23 08:30N 29°36' W 090°40'0 0.0
2017-Apr-23 08:00N 29°36' W 090°40'0 0.0
2017-Apr-23 07:30N 29°36' W 090°40'0 0.0
2017-Apr-23 07:00N 29°36' W 090°40'0 0.0
2017-Apr-23 06:30N 29°36' W 090°40'0 0.0
2017-Apr-23 06:00N 29°36' W 090°40'0 0.0
2017-Apr-23 05:30N 29°36' W 090°40'0 0.0
2017-Apr-23 05:00N 29°36' W 090°40'0 0.0
2017-Apr-23 04:30N 29°36' W 090°40'0 0.0
2017-Apr-23 04:00N 29°36' W 090°40'0 0.0
2017-Apr-23 03:30N 29°36' W 090°40'0 0.0
2017-Apr-23 03:00N 29°36' W 090°40'0 0.0
2017-Apr-23 02:30N 29°36' W 090°40'0 0.0
2017-Apr-23 02:00N 29°36' W 090°40'0 0.0
2017-Apr-23 01:30N 29°36' W 090°40'0 0.0
2017-Apr-23 01:00N 29°36' W 090°40'0 0.0
2017-Apr-23 00:30N 29°36' W 090°40'0 0.0
2017-Apr-23 00:00N 29°36' W 090°40'0 0.0
2017-Apr-22 23:30N 29°36' W 090°40'0 0.0
2017-Apr-22 23:00N 29°36' W 090°40'0 0.5
2017-Apr-22 22:30N 29°36' W 090°40'0 0.5
2017-Apr-22 22:00N 29°36' W 090°40'1 2.5
2017-Apr-22 21:30N 29°35' W 090°39'2 4.7
2017-Apr-22 20:59N 29°35' W 090°36'3 5.6
2017-Apr-22 20:30N 29°34' W 090°33'  
2017-Apr-20 04:50N 29°34' W 090°30'2 4.7
2017-Apr-20 04:30N 29°34' W 090°31'2 4.4
2017-Apr-20 04:00N 29°34' W 090°34'1 1.3
2017-Apr-20 03:28N 29°34' W 090°35'1 3.2
2017-Apr-20 03:00N 29°35' W 090°36'2 4.6
2017-Apr-20 02:30N 29°35' W 090°39'1 2.8
2017-Apr-20 02:00N 29°36' W 090°40'0 0.0
2017-Apr-20 01:30N 29°36' W 090°40'0 0.0
2017-Apr-20 01:00N 29°36' W 090°40'0 0.0
2017-Apr-20 00:30N 29°36' W 090°40'0 0.0
2017-Apr-20 00:00N 29°36' W 090°40'0 0.0
2017-Apr-19 23:30N 29°36' W 090°40'0 0.0
2017-Apr-19 23:00N 29°36' W 090°40'0 0.1
2017-Apr-19 22:30N 29°36' W 090°40'0 0.1
2017-Apr-19 22:00N 29°36' W 090°40'0 0.0
2017-Apr-19 21:30N 29°36' W 090°40'0 0.0
2017-Apr-19 21:00N 29°36' W 090°40'0 0.0
2017-Apr-19 20:30N 29°36' W 090°40'0 0.0
2017-Apr-19 20:00N 29°36' W 090°40'0 0.0
2017-Apr-19 19:30N 29°36' W 090°40'0 0.0
2017-Apr-19 19:00N 29°36' W 090°40'1 2.6
2017-Apr-19 18:30N 29°37' W 090°42'1 1.9
2017-Apr-19 18:00N 29°36' W 090°43'2 3.8
2017-Apr-19 17:30N 29°35' W 090°43'1 2.2
2017-Apr-19 17:00N 29°34' W 090°44'1 2.7
2017-Apr-19 16:30N 29°33' W 090°45'0 0.4
2017-Apr-19 16:00N 29°33' W 090°45'1 3.0
2017-Apr-19 15:30N 29°32' W 090°47'3 5.8
2017-Apr-19 15:00N 29°32' W 090°50'3 5.0
2017-Apr-19 14:28N 29°33' W 090°53'56 3.1
2017-Apr-18 20:32N 29°51' W 091°54'1 5.1
2017-Apr-18 20:17N 29°51' W 091°56'1 5.3
2017-Apr-18 20:00N 29°50' W 091°57'3 5.3
2017-Apr-18 19:30N 29°50' W 092°00'3 5.4
2017-Apr-18 19:00N 29°49' W 092°03'3 5.7
2017-Apr-18 18:30N 29°48' W 092°06'3 5.4
2017-Apr-18 18:00N 29°47' W 092°09'2 4.7
2017-Apr-18 17:30N 29°47' W 092°12'0 0.7
2017-Apr-18 17:00N 29°47' W 092°13'1 2.0
2017-Apr-18 16:30N 29°48' W 092°14'2 3.4
2017-Apr-18 16:00N 29°48' W 092°15'2 4.4
2017-Apr-18 15:30N 29°49' W 092°18'2 3.8
2017-Apr-18 15:00N 29°50' W 092°19'2 4.5
2017-Apr-18 14:30N 29°51' W 092°22'5 4.7
2017-Apr-18 13:30N 29°53' W 092°27'32 4.6
2017-Apr-18 06:27N 29°56' W 093°04'8 4.2
2017-Apr-18 04:29N 29°59' W 093°13'2 4.3
2017-Apr-18 04:00N 30°01' W 093°14'1 2.0
2017-Apr-18 03:30N 30°02' W 093°15'1 1.9
2017-Apr-18 03:00N 30°02' W 093°16'2 4.4
2017-Apr-18 02:30N 30°04' W 093°16'1 2.9
2017-Apr-18 02:00N 30°05' W 093°18'1 2.2
2017-Apr-18 01:30N 30°06' W 093°18'0 0.3
2017-Apr-18 01:00N 30°06' W 093°19'0 0.5
2017-Apr-18 00:30N 30°06' W 093°19'0 0.4
2017-Apr-18 00:00N 30°06' W 093°19'0 1.0
2017-Apr-17 23:30N 30°06' W 093°19'1 2.5
2017-Apr-17 23:01N 30°05' W 093°20'0 0.2
2017-Apr-17 22:30N 30°05' W 093°20'0 0.0
2017-Apr-17 22:00N 30°05' W 093°20'0 0.0
2017-Apr-17 21:30N 30°05' W 093°20'0 0.0
2017-Apr-17 21:00N 30°05' W 093°20'0 0.0
2017-Apr-17 20:30N 30°05' W 093°20'0 0.0
2017-Apr-17 20:00N 30°05' W 093°20'0 0.0
2017-Apr-17 19:30N 30°05' W 093°20'0 0.0
2017-Apr-17 19:00N 30°05' W 093°20'0 0.5
2017-Apr-17 18:30N 30°05' W 093°20'0 0.5
2017-Apr-17 18:00N 30°05' W 093°20'0 0.0
2017-Apr-17 17:30N 30°05' W 093°20'0 0.0
2017-Apr-17 17:01N 30°05' W 093°20'0 0.0
2017-Apr-17 16:31N 30°05' W 093°20'0 0.0
2017-Apr-17 16:00N 30°05' W 093°20'0 0.0
2017-Apr-17 15:31N 30°05' W 093°20'0 0.0
2017-Apr-17 15:01N 30°05' W 093°20'0 0.0
2017-Apr-17 14:31N 30°05' W 093°20'0 0.0
2017-Apr-17 13:31N 30°05' W 093°20'0 0.0
2017-Apr-17 13:01N 30°05' W 093°20'0 0.0
2017-Apr-17 12:30N 30°05' W 093°20'0 0.0
2017-Apr-17 12:01N 30°05' W 093°20'0 0.0
2017-Apr-17 11:31N 30°05' W 093°20'0 0.0
2017-Apr-17 11:01N 30°05' W 093°20'0 0.0
2017-Apr-17 10:30N 30°05' W 093°20'0 0.0
2017-Apr-17 10:00N 30°05' W 093°20'0 0.0
2017-Apr-17 09:30N 30°05' W 093°20'0 0.0
2017-Apr-17 09:00N 30°05' W 093°20'0 0.0
2017-Apr-17 08:31N 30°05' W 093°20'0 0.0
2017-Apr-17 08:01N 30°05' W 093°20'0 0.0
2017-Apr-17 07:31N 30°05' W 093°20'0 0.0
2017-Apr-17 07:00N 30°05' W 093°20'0 0.0
2017-Apr-17 06:31N 30°05' W 093°20'0 0.0
2017-Apr-17 06:01N 30°05' W 093°20'0 0.0
2017-Apr-17 05:31N 30°05' W 093°20'0 0.0
2017-Apr-17 05:00N 30°05' W 093°20'0 0.0
2017-Apr-17 04:31N 30°05' W 093°20'0 0.0
2017-Apr-17 04:01N 30°05' W 093°20'0 0.0
2017-Apr-17 03:30N 30°05' W 093°20'0 0.0
2017-Apr-17 03:01N 30°05' W 093°20'0 0.0
2017-Apr-17 02:31N 30°05' W 093°20'0 0.0
2017-Apr-17 02:01N 30°05' W 093°20'0 0.0
2017-Apr-17 01:31N 30°05' W 093°20'0 0.0
2017-Apr-17 01:00N 30°05' W 093°20'0 0.0
2017-Apr-17 00:30N 30°05' W 093°20'0 0.0
2017-Apr-17 00:01N 30°05' W 093°20'0 0.0
2017-Apr-16 23:30N 30°05' W 093°20'0 0.0
2017-Apr-16 23:01N 30°05' W 093°20'0 0.0
2017-Apr-16 22:30N 30°05' W 093°20'0 0.0
2017-Apr-16 22:01N 30°05' W 093°20'0 0.0
2017-Apr-16 21:30N 30°05' W 093°20'0 0.0
2017-Apr-16 21:00N 30°05' W 093°20'0 0.0
2017-Apr-16 20:31N 30°05' W 093°20'0 0.0
2017-Apr-16 20:01N 30°05' W 093°20'0 0.0
2017-Apr-16 19:30N 30°05' W 093°20'0 0.0
2017-Apr-16 19:01N 30°05' W 093°20'0 0.0
2017-Apr-16 18:30N 30°05' W 093°20'0 0.0
2017-Apr-16 18:01N 30°05' W 093°20'0 0.0
2017-Apr-16 17:31N 30°05' W 093°20'0 0.0
2017-Apr-16 17:01N 30°05' W 093°20'0 0.0
2017-Apr-16 16:31N 30°05' W 093°20'0 0.0
2017-Apr-16 16:01N 30°05' W 093°20'0 0.0
2017-Apr-16 15:30N 30°05' W 093°20'0 0.0
2017-Apr-16 15:00N 30°05' W 093°20'0 0.0
2017-Apr-16 14:30N 30°05' W 093°20'0 0.0
2017-Apr-16 13:30N 30°05' W 093°20'0 0.0
2017-Apr-16 13:00N 30°05' W 093°20'0 0.0
2017-Apr-16 12:31N 30°05' W 093°20'0 0.0
2017-Apr-16 12:00N 30°05' W 093°20'0 0.0
2017-Apr-16 11:30N 30°05' W 093°20'0 0.0
2017-Apr-16 11:01N 30°05' W 093°20'0 0.0
2017-Apr-16 10:30N 30°05' W 093°20'0 0.0
2017-Apr-16 10:00N 30°05' W 093°20'0 0.0
2017-Apr-16 09:31N 30°05' W 093°20'0 0.0
2017-Apr-16 09:00N 30°05' W 093°20'0 0.0
2017-Apr-16 08:30N 30°05' W 093°20'0 0.0
2017-Apr-16 08:00N 30°05' W 093°20'0 0.0
2017-Apr-16 07:31N 30°05' W 093°20'0 0.0
2017-Apr-16 07:01N 30°05' W 093°20'0 0.0
2017-Apr-16 06:31N 30°05' W 093°20'0 0.0
2017-Apr-16 06:00N 30°05' W 093°20'0 0.0
2017-Apr-16 05:31N 30°05' W 093°20'0 0.0
2017-Apr-16 05:01N 30°05' W 093°20'0 0.0
2017-Apr-16 04:30N 30°05' W 093°20'0 0.0
2017-Apr-16 04:00N 30°05' W 093°20'0 0.0
2017-Apr-16 03:30N 30°05' W 093°20'0 0.0
2017-Apr-16 03:01N 30°05' W 093°20'0 0.0
2017-Apr-16 02:30N 30°05' W 093°20'0 0.0
2017-Apr-16 02:01N 30°05' W 093°20'0 0.0
2017-Apr-16 01:31N 30°05' W 093°20'0 0.0
2017-Apr-16 01:00N 30°05' W 093°20'0 0.0
2017-Apr-16 00:30N 30°05' W 093°20'0 0.0
2017-Apr-16 00:01N 30°05' W 093°20'0 0.0
2017-Apr-15 23:31N 30°05' W 093°20'0 0.0
2017-Apr-15 23:01N 30°05' W 093°20'0 0.0
2017-Apr-15 22:30N 30°05' W 093°20'2 4.6
2017-Apr-15 22:00N 30°06' W 093°18'0 0.0
2017-Apr-15 21:30N 30°06' W 093°18'0 0.0
2017-Apr-15 21:01N 30°06' W 093°18'0 0.0
2017-Apr-15 20:31N 30°06' W 093°18'0 0.0
2017-Apr-15 20:01N 30°06' W 093°18'0 0.0
2017-Apr-15 19:31N 30°06' W 093°18'0 0.0
2017-Apr-15 19:00N 30°06' W 093°18'0 0.0
2017-Apr-15 18:31N 30°06' W 093°18'2 4.5
2017-Apr-15 18:00N 30°05' W 093°20'0 0.0
2017-Apr-15 17:31N 30°05' W 093°20'0 0.7
2017-Apr-15 17:00N 30°05' W 093°20'2 3.9
2017-Apr-15 16:30N 30°07' W 093°20'2 4.9
2017-Apr-15 16:00N 30°09' W 093°20'1 2.1
2017-Apr-15 15:30N 30°10' W 093°19'0 0.0
2017-Apr-15 15:00N 30°10' W 093°19'0 0.1
2017-Apr-15 14:31N 30°10' W 093°19'0 0.0
2017-Apr-15 13:30N 30°10' W 093°19'0 0.0
2017-Apr-15 13:01N 30°10' W 093°19'0 0.0
2017-Apr-15 12:31N 30°10' W 093°19'0 0.0
2017-Apr-15 12:01N 30°10' W 093°19'0 0.0
2017-Apr-15 11:31N 30°10' W 093°19'0 0.0
2017-Apr-15 11:00N 30°10' W 093°19'0 0.0
2017-Apr-15 10:31N 30°10' W 093°19'0 0.0
2017-Apr-15 10:00N 30°10' W 093°19'0 0.0
2017-Apr-15 09:31N 30°10' W 093°19'0 0.0
2017-Apr-15 09:00N 30°10' W 093°19'0 0.0
2017-Apr-15 08:30N 30°10' W 093°19'0 0.0
2017-Apr-15 08:01N 30°10' W 093°19'0 0.0
2017-Apr-15 07:31N 30°10' W 093°19'0 0.0
2017-Apr-15 07:00N 30°10' W 093°19'0 0.0
2017-Apr-15 06:31N 30°10' W 093°19'0 0.0
2017-Apr-15 06:00N 30°10' W 093°19'0 0.0
2017-Apr-15 05:30N 30°10' W 093°19'0 0.0
2017-Apr-15 05:01N 30°10' W 093°19'0 0.0
2017-Apr-15 04:30N 30°10' W 093°19'0 0.0
2017-Apr-15 03:51N 30°10' W 093°19'0 0.0
2017-Apr-15 03:30N 30°10' W 093°19'0 0.0
2017-Apr-15 03:00N 30°10' W 093°19'0 0.0
2017-Apr-15 02:30N 30°10' W 093°19'0 0.0
2017-Apr-15 02:00N 30°10' W 093°19'0 0.0
2017-Apr-15 01:30N 30°10' W 093°19'0 0.0
2017-Apr-15 01:00N 30°10' W 093°19'0 0.0
2017-Apr-15 00:30N 30°10' W 093°19'0 0.0
2017-Apr-15 00:00N 30°10' W 093°19'0 0.0
2017-Apr-14 23:30N 30°10' W 093°19'0 0.0
2017-Apr-14 23:00N 30°10' W 093°19'0 0.0
2017-Apr-14 22:30N 30°10' W 093°19'0 0.0
2017-Apr-14 22:00N 30°10' W 093°19'0 0.0
2017-Apr-14 21:30N 30°10' W 093°19'0 0.0
2017-Apr-14 21:00N 30°10' W 093°19'0 0.0
2017-Apr-14 20:30N 30°10' W 093°19'0 0.0
2017-Apr-14 20:00N 30°10' W 093°19'0 0.0
2017-Apr-14 19:30N 30°10' W 093°19'2 3.6
2017-Apr-14 19:00N 30°09' W 093°20'2 4.2
2017-Apr-14 18:30N 30°07' W 093°20'2 4.2
2017-Apr-14 18:00N 30°04' W 093°20'0 0.1
2017-Apr-14 17:30N 30°04' W 093°20'0 0.0
2017-Apr-14 17:00N 30°04' W 093°20'0 0.0
2017-Apr-14 16:30N 30°04' W 093°20'0 0.0
2017-Apr-14 16:00N 30°04' W 093°20'0 0.0
2017-Apr-14 15:30N 30°04' W 093°20'0 0.0
2017-Apr-14 15:00N 30°04' W 093°20'0 0.0
2017-Apr-14 14:30N 30°04' W 093°20'0 0.0
2017-Apr-14 13:30N 30°04' W 093°20'0 0.0
2017-Apr-14 13:00N 30°04' W 093°20'0 0.0
2017-Apr-14 12:30N 30°04' W 093°20'0 0.0
2017-Apr-14 12:00N 30°04' W 093°20'0 0.0
2017-Apr-14 11:30N 30°04' W 093°20'0 0.0
2017-Apr-14 11:00N 30°04' W 093°20'0 0.0
2017-Apr-14 10:30N 30°04' W 093°20'0 0.4
2017-Apr-14 10:00N 30°05' W 093°20'0 0.0
2017-Apr-14 09:30N 30°05' W 093°20'0 0.0
2017-Apr-14 09:00N 30°05' W 093°20'0 0.0
2017-Apr-14 08:30N 30°05' W 093°20'0 0.0
2017-Apr-14 08:00N 30°05' W 093°20'0 0.0
2017-Apr-14 07:30N 30°05' W 093°20'0 0.0
2017-Apr-14 07:00N 30°05' W 093°20'0 0.0
2017-Apr-14 06:30N 30°05' W 093°20'0 0.0
2017-Apr-14 06:00N 30°05' W 093°20'0 0.0
2017-Apr-14 05:30N 30°05' W 093°20'0 0.0
2017-Apr-14 05:00N 30°05' W 093°20'0 0.1
2017-Apr-14 04:30N 30°05' W 093°20'2 4.1
2017-Apr-14 04:00N 30°07' W 093°20'1 1.3
2017-Apr-14 03:30N 30°07' W 093°20'3 5.2
2017-Apr-14 03:00N 30°05' W 093°20'0 0.7
2017-Apr-14 02:30N 30°04' W 093°20'0 0.0
2017-Apr-14 02:00N 30°04' W 093°20'0 0.0
2017-Apr-14 01:30N 30°04' W 093°20'1 1.4
2017-Apr-14 01:00N 30°05' W 093°20'2 3.5
2017-Apr-14 00:30N 30°06' W 093°18'0 0.5
2017-Apr-14 00:00N 30°06' W 093°18'2 4.5
2017-Apr-13 23:30N 30°04' W 093°16'2 4.5
2017-Apr-13 23:00N 30°02' W 093°15'3 5.2
2017-Apr-13 22:30N 30°00' W 093°14'3 5.6
2017-Apr-13 22:00N 29°58' W 093°11'3 5.4
2017-Apr-13 21:30N 29°56' W 093°09'36 5.6
2017-Apr-13 15:01N 29°54' W 092°27'0 5.9
2017-Apr-13 14:59N 29°54' W 092°27'  

Dump ship's entire track history